createdAt,value
2022-10-25T00:01:36.232Z,12.16
2022-10-25T00:04:03.100Z,12.11
2022-10-25T00:06:29.838Z,12.32
2022-10-25T00:08:56.485Z,12.30
2022-10-25T00:11:24.817Z,12.26
2022-10-25T00:13:52.752Z,12.62
2022-10-25T00:16:22.883Z,12.39
2022-10-25T00:18:49.487Z,12.00
2022-10-25T00:21:16.086Z,12.00
2022-10-25T00:23:42.669Z,11.71
2022-10-25T00:26:09.740Z,12.47
2022-10-25T00:28:36.465Z,12.57
2022-10-25T00:31:04.397Z,11.76
2022-10-25T00:33:34.685Z,11.96
2022-10-25T00:36:18.415Z,11.99
2022-10-25T00:38:46.398Z,11.62
2022-10-25T00:41:14.519Z,12.12
2022-10-25T00:43:43.125Z,11.87
2022-10-25T00:46:19.710Z,12.41
2022-10-25T00:49:02.496Z,12.31
2022-10-25T00:51:33.243Z,11.98
2022-10-25T00:53:59.897Z,11.19
2022-10-25T00:56:28.259Z,12.01
2022-10-25T00:58:58.368Z,10.93
2022-10-25T01:01:25.130Z,10.51
2022-10-25T01:03:52.697Z,11.24
2022-10-25T01:06:25.399Z,11.28
2022-10-25T01:09:12.112Z,10.86
2022-10-25T01:11:38.892Z,11.00
2022-10-25T01:14:06.298Z,11.41
2022-10-25T01:16:57.254Z,11.39
2022-10-25T01:20:01.226Z,11.31
2022-10-25T01:22:48.136Z,11.20
2022-10-25T01:25:55.671Z,11.14
2022-10-25T01:28:52.363Z,11.00
2022-10-25T01:31:39.684Z,11.09
2022-10-25T01:34:25.891Z,10.59
2022-10-25T01:37:07.573Z,11.19
2022-10-25T01:39:36.786Z,11.03
2022-10-25T01:42:09.361Z,11.38
2022-10-25T01:44:56.126Z,11.44
2022-10-25T01:47:41.480Z,11.17
2022-10-25T01:50:19.429Z,11.54
2022-10-25T01:52:46.114Z,10.89
2022-10-25T01:55:12.935Z,11.22
2022-10-25T01:58:08.047Z,10.96
2022-10-25T02:01:10.423Z,11.74
2022-10-25T02:03:40.162Z,10.25
2022-10-25T02:06:27.016Z,11.89
2022-10-25T02:09:03.538Z,11.83
2022-10-25T02:11:31.287Z,11.54
2022-10-25T02:14:25.841Z,11.90
2022-10-25T02:17:09.293Z,12.08
2022-10-25T02:19:47.508Z,11.88
2022-10-25T02:22:14.082Z,11.94
2022-10-25T02:24:41.633Z,12.06
2022-10-25T02:27:08.215Z,11.64
2022-10-25T02:29:34.972Z,11.53
2022-10-25T02:32:02.663Z,12.07
2022-10-25T02:34:29.275Z,11.25
2022-10-25T02:36:55.926Z,11.79
2022-10-25T02:39:26.401Z,12.11
2022-10-25T02:41:55.647Z,12.23
2022-10-25T02:44:22.273Z,12.25
2022-10-25T02:46:48.823Z,11.94
2022-10-25T02:49:15.426Z,11.80
2022-10-25T02:51:42.055Z,10.78
2022-10-25T02:54:08.684Z,12.14
2022-10-25T02:56:36.357Z,12.04
2022-10-25T02:59:03.080Z,11.45
2022-10-25T03:01:29.912Z,11.26
2022-10-25T03:03:56.566Z,11.89
2022-10-25T03:06:23.150Z,12.32
2022-10-25T03:08:49.792Z,11.70
2022-10-25T03:11:16.632Z,10.34
2022-10-25T03:13:43.454Z,12.21
2022-10-25T03:16:10.209Z,11.22
2022-10-25T03:18:37.032Z,11.82
2022-10-25T03:21:03.895Z,12.42
2022-10-25T03:23:30.683Z,10.37
2022-10-25T03:25:58.132Z,12.14
2022-10-25T03:28:24.950Z,11.32
2022-10-25T03:30:51.525Z,11.06
2022-10-25T03:33:18.117Z,10.43
2022-10-25T03:35:44.799Z,11.58
2022-10-25T03:38:11.405Z,12.26
2022-10-25T03:40:38.001Z,12.29
2022-10-25T03:43:04.589Z,12.11
2022-10-25T03:45:31.200Z,11.75
2022-10-25T03:47:57.935Z,12.07
2022-10-25T03:50:24.508Z,11.88
2022-10-25T03:52:51.112Z,11.43
2022-10-25T03:55:17.785Z,12.38
2022-10-25T03:57:44.868Z,12.15
2022-10-25T04:00:12.313Z,12.59
2022-10-25T04:02:39.030Z,10.93
2022-10-25T04:05:05.913Z,12.03
2022-10-25T04:07:32.460Z,11.54
2022-10-25T04:09:59.031Z,10.90
2022-10-25T04:12:25.644Z,11.51
2022-10-25T04:14:52.209Z,11.61
2022-10-25T04:17:18.980Z,10.99
2022-10-25T04:19:45.718Z,12.01
2022-10-25T04:22:12.524Z,11.24
2022-10-25T04:24:39.308Z,12.03
2022-10-25T04:27:05.876Z,12.04
2022-10-25T04:29:32.440Z,11.87
2022-10-25T04:31:59.151Z,11.81
2022-10-25T04:34:25.892Z,11.42
2022-10-25T04:36:52.471Z,10.55
2022-10-25T04:39:19.160Z,11.29
2022-10-25T04:41:45.886Z,10.51
2022-10-25T04:44:12.508Z,11.50
2022-10-25T04:46:39.066Z,11.70
2022-10-25T04:49:05.865Z,10.07
2022-10-25T04:51:32.574Z,11.58
2022-10-25T04:53:59.205Z,10.31
2022-10-25T04:56:25.939Z,11.25
2022-10-25T04:58:52.589Z,10.68
2022-10-25T05:01:19.524Z,11.18
2022-10-25T05:03:46.228Z,10.37
2022-10-25T05:06:17.561Z,11.34
2022-10-25T05:08:45.575Z,11.17
2022-10-25T05:11:12.825Z,11.41
2022-10-25T05:13:39.805Z,11.34
2022-10-25T05:16:07.050Z,10.95
2022-10-25T05:18:34.322Z,11.66
2022-10-25T05:21:04.251Z,11.44
2022-10-25T05:23:31.024Z,11.69
2022-10-25T05:26:02.397Z,10.56
2022-10-25T05:28:29.178Z,11.84
2022-10-25T05:30:55.848Z,11.94
2022-10-25T05:33:22.580Z,11.66
2022-10-25T05:35:49.144Z,11.48
2022-10-25T05:38:15.850Z,12.03
2022-10-25T05:40:42.497Z,10.48
2022-10-25T05:43:09.238Z,11.67
2022-10-25T05:45:35.915Z,10.25
2022-10-25T05:48:02.707Z,11.89
2022-10-25T05:50:29.310Z,11.61
2022-10-25T05:52:55.966Z,11.72
2022-10-25T05:55:22.530Z,11.90
2022-10-25T05:57:52.188Z,11.93
2022-10-25T06:00:18.785Z,11.34
2022-10-25T06:02:45.717Z,11.77
2022-10-25T06:05:12.706Z,11.36
2022-10-25T06:07:39.519Z,11.92
2022-10-25T06:10:10.396Z,12.20
2022-10-25T06:12:37.357Z,11.20
2022-10-25T06:15:04.209Z,11.39
2022-10-25T06:17:30.820Z,11.50
2022-10-25T06:19:57.574Z,12.17
2022-10-25T06:22:24.240Z,12.12
2022-10-25T06:24:50.806Z,10.88
2022-10-25T06:27:17.367Z,11.94
2022-10-25T06:29:44.008Z,11.04
2022-10-25T06:32:10.643Z,12.02
2022-10-25T06:34:37.271Z,11.50
2022-10-25T06:37:03.878Z,11.15
2022-10-25T06:39:30.500Z,11.74
2022-10-25T06:41:57.203Z,12.18
2022-10-25T06:44:23.825Z,11.95
2022-10-25T06:47:15.778Z,11.97
2022-10-25T06:49:37.335Z,12.40
2022-10-25T06:52:03.894Z,12.56
2022-10-25T06:54:30.469Z,11.23
2022-10-25T06:56:57.970Z,11.79
2022-10-25T06:59:24.774Z,12.37
2022-10-25T07:01:51.551Z,12.62
2022-10-25T07:04:18.256Z,12.76
2022-10-25T07:06:44.889Z,11.51
2022-10-25T07:09:12.550Z,11.60
2022-10-25T07:11:39.335Z,11.77
2022-10-25T07:14:06.020Z,12.11
2022-10-25T07:16:32.759Z,11.74
2022-10-25T07:19:00.072Z,11.37
2022-10-25T07:21:26.892Z,11.28
2022-10-25T07:23:53.525Z,11.31
2022-10-25T07:26:22.109Z,13.25
2022-10-25T07:28:49.792Z,12.76
2022-10-25T07:31:18.605Z,12.75
2022-10-25T07:33:45.158Z,14.34
2022-10-25T07:36:12.255Z,15.12
2022-10-25T07:38:39.044Z,16.24
2022-10-25T07:41:05.848Z,17.25
2022-10-25T07:43:32.415Z,18.39
2022-10-25T07:45:59.051Z,19.91
2022-10-25T07:48:25.754Z,20.91
2022-10-25T07:50:52.342Z,21.22
2022-10-25T07:53:19.111Z,22.86
2022-10-25T07:55:52.450Z,23.97
2022-10-25T07:58:19.148Z,24.01
2022-10-25T08:00:45.759Z,23.15
2022-10-25T08:03:13.264Z,22.86
2022-10-25T08:05:40.130Z,22.15
2022-10-25T08:08:06.760Z,21.77
2022-10-25T08:10:33.735Z,21.11
2022-10-25T08:13:00.292Z,20.99
2022-10-25T08:15:26.897Z,18.89
2022-10-25T08:18:00.235Z,20.22
2022-10-25T08:20:43.326Z,19.40
2022-10-25T08:23:13.640Z,19.40
2022-10-25T08:25:40.448Z,18.78
2022-10-25T08:28:07.168Z,18.52
2022-10-25T08:30:33.806Z,18.33
2022-10-25T08:33:00.478Z,18.09
2022-10-25T08:35:27.035Z,18.29
2022-10-25T08:37:53.577Z,17.79
2022-10-25T08:40:25.157Z,17.48
2022-10-25T08:43:19.468Z,18.02
2022-10-25T08:45:57.460Z,17.50
2022-10-25T08:48:33.189Z,17.96
2022-10-25T08:51:04.551Z,17.51
2022-10-25T08:53:40.642Z,18.43
2022-10-25T08:56:16.586Z,18.14
2022-10-25T08:58:58.259Z,18.49
2022-10-25T09:01:36.965Z,18.16
2022-10-25T09:04:03.872Z,18.90
2022-10-25T09:06:43.750Z,18.63
2022-10-25T09:09:25.363Z,19.02
2022-10-25T09:11:58.132Z,19.34
2022-10-25T09:14:47.577Z,19.49
2022-10-25T09:17:21.741Z,19.26
2022-10-25T09:20:04.391Z,19.18
2022-10-25T09:22:35.519Z,18.27
2022-10-25T09:25:57.611Z,19.01
2022-10-25T09:28:42.400Z,18.77
2022-10-25T09:31:11.246Z,17.80
2022-10-25T09:33:37.805Z,18.19
2022-10-25T09:36:04.547Z,17.53
2022-10-25T09:38:47.809Z,18.08
2022-10-25T09:41:24.415Z,17.70
2022-10-25T09:43:50.921Z,17.79
2022-10-25T09:46:21.003Z,17.59
2022-10-25T09:48:53.414Z,17.02
2022-10-25T09:51:34.120Z,17.24
2022-10-25T09:54:01.586Z,16.43
2022-10-25T09:56:32.529Z,16.68
2022-10-25T09:59:04.400Z,16.02
2022-10-25T10:01:31.217Z,16.51
2022-10-25T10:04:05.083Z,16.41
2022-10-25T10:06:36.630Z,16.33
2022-10-25T10:09:05.403Z,15.46
2022-10-25T10:11:32.444Z,15.27
2022-10-25T10:14:09.157Z,16.24
2022-10-25T10:16:41.772Z,16.45
2022-10-25T10:19:16.383Z,16.64
2022-10-25T10:21:52.706Z,16.28
2022-10-25T10:24:24.927Z,15.72
2022-10-25T10:27:12.167Z,16.13
2022-10-25T10:29:47.443Z,15.81
2022-10-25T10:32:26.170Z,15.58
2022-10-25T10:34:55.170Z,15.61
2022-10-25T10:37:23.021Z,15.63
2022-10-25T10:40:02.465Z,16.03
2022-10-25T10:42:38.052Z,16.06
2022-10-25T10:45:15.417Z,16.07
2022-10-25T10:47:45.948Z,15.65
2022-10-25T10:50:22.634Z,15.93
2022-10-25T10:53:09.304Z,16.25
2022-10-25T10:55:36.850Z,16.39
2022-10-25T10:58:14.675Z,16.49
2022-10-25T11:00:41.746Z,16.42
2022-10-25T11:03:31.415Z,16.25
2022-10-25T11:05:59.421Z,16.65
2022-10-25T11:08:26.120Z,16.50
2022-10-25T11:10:52.698Z,15.99
2022-10-25T11:13:19.957Z,16.46
2022-10-25T11:15:58.634Z,17.14
2022-10-25T11:18:35.188Z,16.93
2022-10-25T11:21:26.062Z,16.76
2022-10-25T11:23:59.423Z,16.05
2022-10-25T11:26:26.114Z,17.10
2022-10-25T11:28:58.757Z,17.08
2022-10-25T11:31:33.270Z,16.30
2022-10-25T11:34:04.624Z,17.10
2022-10-25T11:37:10.697Z,17.01
2022-10-25T11:39:59.259Z,16.95
2022-10-25T11:42:30.221Z,16.86
2022-10-25T11:45:15.295Z,16.76
2022-10-25T11:47:50.924Z,16.75
2022-10-25T11:50:20.742Z,15.32
2022-10-25T11:53:24.356Z,16.97
2022-10-25T11:56:07.063Z,16.98
2022-10-25T11:58:50.688Z,17.06
2022-10-25T12:01:35.586Z,16.58
2022-10-25T12:04:29.748Z,17.04
2022-10-25T12:07:03.651Z,17.03
2022-10-25T12:09:42.326Z,17.00
2022-10-25T12:12:14.894Z,16.93
2022-10-25T12:14:44.706Z,16.54
2022-10-25T12:17:31.289Z,16.56
2022-10-25T12:19:59.655Z,16.81
2022-10-25T12:22:28.884Z,16.60
2022-10-25T12:25:19.887Z,16.40
2022-10-25T12:27:46.480Z,16.46
2022-10-25T12:30:17.463Z,17.06
2022-10-25T12:32:54.015Z,16.51
2022-10-25T12:35:27.043Z,16.86
2022-10-25T12:37:59.089Z,16.67
2022-10-25T12:40:26.120Z,16.39
2022-10-25T12:43:25.916Z,16.90
2022-10-25T12:46:17.626Z,16.91
2022-10-25T12:48:55.438Z,16.90
2022-10-25T12:51:38.233Z,16.40
2022-10-25T12:54:14.748Z,16.44
2022-10-25T12:56:45.108Z,16.89
2022-10-25T12:59:30.282Z,16.87
2022-10-25T13:02:03.006Z,16.85
2022-10-25T13:04:35.611Z,16.88
2022-10-25T13:07:03.649Z,16.77
2022-10-25T13:09:31.504Z,16.70
2022-10-25T13:11:59.965Z,15.51
2022-10-25T13:14:30.930Z,17.21
2022-10-25T13:17:16.428Z,17.24
2022-10-25T13:19:55.322Z,16.35
2022-10-25T13:22:46.686Z,17.21
2022-10-25T13:25:13.339Z,17.07
2022-10-25T13:27:42.413Z,16.82
2022-10-25T13:30:13.130Z,16.89
2022-10-25T13:32:43.707Z,16.21
2022-10-25T13:35:19.527Z,16.65
2022-10-25T13:37:50.648Z,15.11
2022-10-25T13:40:20.452Z,16.36
2022-10-25T13:42:47.784Z,15.94
2022-10-25T13:45:41.747Z,16.31
2022-10-25T13:48:14.325Z,16.29
2022-10-25T13:50:52.932Z,16.22
2022-10-25T13:53:26.187Z,16.13
2022-10-25T13:56:05.615Z,15.28
2022-10-25T13:58:32.552Z,16.07
2022-10-25T14:01:18.117Z,16.08
2022-10-25T14:03:54.368Z,15.69
2022-10-25T14:06:34.247Z,16.18
2022-10-25T14:09:23.846Z,16.21
2022-10-25T14:12:14.636Z,16.23
2022-10-25T14:14:48.290Z,16.17
2022-10-25T14:17:23.274Z,15.75
2022-10-25T14:19:51.237Z,15.84
2022-10-25T14:22:20.787Z,15.82
2022-10-25T14:24:49.271Z,15.96
2022-10-25T14:27:26.311Z,15.82
2022-10-25T14:29:52.931Z,15.46
2022-10-25T14:32:20.737Z,14.46
2022-10-25T14:34:51.104Z,15.61
2022-10-25T14:37:17.701Z,14.53
2022-10-25T14:39:53.775Z,16.00
2022-10-25T14:42:20.599Z,15.45
2022-10-25T14:44:49.102Z,15.26
2022-10-25T14:47:29.457Z,15.54
2022-10-25T14:49:57.435Z,15.46
2022-10-25T14:52:24.969Z,15.29
2022-10-25T14:54:56.245Z,15.37
2022-10-25T14:57:24.202Z,15.23
2022-10-25T14:59:51.226Z,14.21
2022-10-25T15:02:34.620Z,14.96
2022-10-25T15:05:02.004Z,14.84
2022-10-25T15:07:30.928Z,13.82
2022-10-25T15:09:58.702Z,13.68
2022-10-25T15:12:29.221Z,14.57
2022-10-25T15:14:57.419Z,13.33
2022-10-25T15:17:30.886Z,14.19
2022-10-25T15:20:16.322Z,14.65
2022-10-25T15:22:45.367Z,12.86
2022-10-25T15:25:24.225Z,14.49
2022-10-25T15:27:51.631Z,14.10
2022-10-25T15:30:37.853Z,14.09
2022-10-25T15:33:08.863Z,13.94
2022-10-25T15:35:41.399Z,13.68
2022-10-25T15:38:10.076Z,14.14
2022-10-25T15:40:38.336Z,13.29
2022-10-25T15:43:05.384Z,12.92
2022-10-25T15:45:32.417Z,13.93
2022-10-25T15:47:59.050Z,13.48
2022-10-25T15:50:26.129Z,13.25
2022-10-25T15:52:53.890Z,13.59
2022-10-25T15:55:22.263Z,13.36
2022-10-25T15:57:48.952Z,13.46
2022-10-25T16:00:25.703Z,12.77
2022-10-25T16:02:54.745Z,12.16
2022-10-25T16:05:30.351Z,13.15
2022-10-25T16:07:56.961Z,12.89
2022-10-25T16:10:24.466Z,11.93
2022-10-25T16:13:01.854Z,13.15
2022-10-25T16:15:28.487Z,13.26
2022-10-25T16:17:55.056Z,13.06
2022-10-25T16:20:23.907Z,12.44
2022-10-25T16:23:22.658Z,13.11
2022-10-25T16:25:49.275Z,11.95
2022-10-25T16:28:16.511Z,10.92
2022-10-25T16:30:43.906Z,12.11
2022-10-25T16:33:10.605Z,12.35
2022-10-25T16:35:37.270Z,11.86
2022-10-25T16:38:06.698Z,11.87
2022-10-25T16:40:33.478Z,11.94
2022-10-25T16:43:00.829Z,11.65
2022-10-25T16:45:32.192Z,11.89
2022-10-25T16:51:45.758Z,11.76
2022-10-25T16:54:12.667Z,11.86
2022-10-25T16:56:39.716Z,11.63
2022-10-25T16:59:06.299Z,11.64
2022-10-25T17:01:34.524Z,11.22
2022-10-25T17:04:03.454Z,11.05
2022-10-25T17:06:45.654Z,11.60
2022-10-25T17:09:12.414Z,11.00
2022-10-25T17:11:39.116Z,11.35
2022-10-25T17:14:05.774Z,11.02
2022-10-25T17:16:32.379Z,11.27
2022-10-25T17:18:58.961Z,11.03
2022-10-25T17:21:25.558Z,10.63
2022-10-25T17:23:52.139Z,10.08
2022-10-25T17:26:19.022Z,10.54
2022-10-25T17:28:45.591Z,10.88
2022-10-25T17:31:13.243Z,9.51
2022-10-25T17:33:40.673Z,10.23
2022-10-25T17:36:14.132Z,10.85
2022-10-25T17:38:40.995Z,8.82
2022-10-25T17:41:07.750Z,9.73
2022-10-25T17:43:35.567Z,10.12
2022-10-25T17:46:09.976Z,10.42
2022-10-25T17:48:36.554Z,10.05
2022-10-25T17:51:08.003Z,9.69
2022-10-25T17:53:34.639Z,10.12
2022-10-25T17:56:17.602Z,9.80
2022-10-25T17:58:46.280Z,9.66
2022-10-25T18:01:14.074Z,9.12
2022-10-25T18:03:40.760Z,9.46
2022-10-25T18:06:09.216Z,9.42
2022-10-25T18:08:38.765Z,8.36
2022-10-25T18:11:10.105Z,9.42
2022-10-25T18:13:38.511Z,9.55
2022-10-25T18:18:33.122Z,9.15
2022-10-25T18:21:10.295Z,9.47
2022-10-25T18:23:37.077Z,9.55
2022-10-25T18:26:05.000Z,8.91
2022-10-25T18:28:35.276Z,9.71
2022-10-25T18:31:03.044Z,9.56
2022-10-25T18:33:30.487Z,9.24
2022-10-25T18:35:58.518Z,10.59
2022-10-25T18:38:25.135Z,10.29
2022-10-25T18:40:51.886Z,9.31
2022-10-25T18:43:18.468Z,10.53
2022-10-25T18:45:45.101Z,10.29
2022-10-25T18:48:12.031Z,10.32
2022-10-25T18:50:53.118Z,10.17
2022-10-25T18:53:19.877Z,9.65
2022-10-25T18:55:52.796Z,10.57
2022-10-25T18:58:19.506Z,10.27
2022-10-25T19:00:46.470Z,10.46
2022-10-25T19:03:14.183Z,10.99
2022-10-25T19:05:40.864Z,10.09
2022-10-25T19:08:08.246Z,10.80
2022-10-25T19:10:41.654Z,11.09
2022-10-25T19:13:09.372Z,11.09
2022-10-25T19:15:36.035Z,9.31
2022-10-25T19:18:02.747Z,10.92
2022-10-25T19:20:29.363Z,11.04
2022-10-25T19:22:58.847Z,11.06
2022-10-25T19:25:28.812Z,10.75
2022-10-25T19:27:55.795Z,10.64
2022-10-25T19:30:22.898Z,10.72
2022-10-25T19:32:49.770Z,10.80
2022-10-25T19:35:16.869Z,10.67
2022-10-25T19:37:43.441Z,10.80
2022-10-25T19:40:10.451Z,10.59
2022-10-25T19:42:37.294Z,9.69
2022-10-25T19:45:04.739Z,10.25
2022-10-25T19:47:31.415Z,10.20
2022-10-25T19:49:58.042Z,10.05
2022-10-25T19:52:24.820Z,10.21
2022-10-25T19:54:51.508Z,9.78
2022-10-25T19:57:18.106Z,9.77
2022-10-25T19:59:44.742Z,9.28
2022-10-25T20:02:11.534Z,9.83
2022-10-25T20:04:38.225Z,9.54
2022-10-25T20:07:05.019Z,9.88
2022-10-25T20:09:31.681Z,9.55
2022-10-25T20:11:58.252Z,9.46
2022-10-25T20:14:24.900Z,9.69
2022-10-25T20:16:51.484Z,9.69
2022-10-25T20:19:18.170Z,9.60
2022-10-25T20:21:44.894Z,9.30
2022-10-25T20:24:11.706Z,9.06
2022-10-25T20:26:39.954Z,9.20
2022-10-25T20:29:20.371Z,9.13
2022-10-25T20:31:53.132Z,9.28
2022-10-25T20:34:19.932Z,9.32
2022-10-25T20:36:47.724Z,9.40
2022-10-25T20:39:14.828Z,8.43
2022-10-25T20:41:41.540Z,9.03
2022-10-25T20:44:08.845Z,7.68
2022-10-25T20:46:35.826Z,8.33
2022-10-25T20:49:03.578Z,9.18
2022-10-25T20:51:30.246Z,8.74
2022-10-25T20:53:57.100Z,8.81
2022-10-25T20:56:24.003Z,8.67
2022-10-25T20:58:51.271Z,8.76
2022-10-25T21:01:17.968Z,8.51
2022-10-25T21:03:44.901Z,8.96
2022-10-25T21:06:12.953Z,8.51
2022-10-25T21:08:39.621Z,8.52
2022-10-25T21:11:08.039Z,8.24
2022-10-25T21:13:35.237Z,8.56
2022-10-25T21:16:20.098Z,8.44
2022-10-25T21:18:46.719Z,8.55
2022-10-25T21:21:17.999Z,6.54
2022-10-25T21:23:46.262Z,8.33
2022-10-25T21:26:12.895Z,7.81
2022-10-25T21:28:40.354Z,8.26
2022-10-25T21:31:11.721Z,7.75
2022-10-25T21:33:38.637Z,8.37
2022-10-25T21:36:07.047Z,8.16
2022-10-25T21:38:33.908Z,8.24
2022-10-25T21:41:13.921Z,8.10
2022-10-25T21:43:45.053Z,7.92
2022-10-25T21:46:12.066Z,7.93
2022-10-25T21:48:38.763Z,7.13
2022-10-25T21:51:05.522Z,7.93
2022-10-25T21:53:32.173Z,6.74
2022-10-25T21:56:31.296Z,8.14
2022-10-25T21:58:58.805Z,7.34
2022-10-25T22:01:27.256Z,8.18
2022-10-25T22:03:54.032Z,8.02
2022-10-25T22:06:22.742Z,7.40
2022-10-25T22:08:49.698Z,7.28
2022-10-25T22:11:20.811Z,7.54
2022-10-25T22:13:47.482Z,8.04
2022-10-25T22:16:18.170Z,7.36
2022-10-25T22:18:57.679Z,7.53
2022-10-25T22:21:24.842Z,7.68
2022-10-25T22:23:51.428Z,7.56
2022-10-25T22:26:19.637Z,7.48
2022-10-25T22:28:46.365Z,7.47
2022-10-25T22:31:14.848Z,7.68
2022-10-25T22:33:41.750Z,7.63
2022-10-25T22:36:08.501Z,7.96
2022-10-25T22:38:35.426Z,6.95
2022-10-25T22:41:06.421Z,7.57
2022-10-25T22:43:36.351Z,6.88
2022-10-25T22:46:04.258Z,7.45
2022-10-25T22:48:35.736Z,7.31
2022-10-25T22:51:02.354Z,7.91
2022-10-25T22:53:29.214Z,7.61
2022-10-25T22:56:00.285Z,7.41
2022-10-25T22:58:27.851Z,7.80
2022-10-25T23:01:06.011Z,7.82
2022-10-25T23:03:38.512Z,7.69
2022-10-25T23:06:06.207Z,7.55
2022-10-25T23:08:32.838Z,7.69
2022-10-25T23:11:16.229Z,7.17
2022-10-25T23:13:42.825Z,6.68
2022-10-25T23:16:10.002Z,7.00
2022-10-25T23:18:37.072Z,6.43
2022-10-25T23:21:03.959Z,5.92
2022-10-25T23:23:33.967Z,6.54
2022-10-25T23:26:00.943Z,7.41
2022-10-25T23:28:30.328Z,7.22
2022-10-25T23:30:57.767Z,7.33
2022-10-25T23:33:24.538Z,6.62
2022-10-25T23:35:51.203Z,6.55
2022-10-25T23:38:17.861Z,5.17
2022-10-25T23:40:46.878Z,6.80
2022-10-25T23:43:13.620Z,6.72
2022-10-25T23:45:42.025Z,6.03
2022-10-25T23:48:08.620Z,7.38
2022-10-25T23:50:35.200Z,5.65
2022-10-25T23:53:01.772Z,5.94
2022-10-25T23:55:28.343Z,6.82
2022-10-25T23:57:58.444Z,6.67
